createdAt,value
2018-11-27T00:01:55.527Z,39.17
2018-11-27T00:04:31.610Z,37.23
2018-11-27T00:07:04.511Z,40.10
2018-11-27T00:09:34.474Z,37.17
2018-11-27T00:12:04.286Z,48.07
2018-11-27T00:14:33.951Z,35.93
2018-11-27T00:17:04.081Z,39.70
2018-11-27T00:19:33.833Z,37.70
2018-11-27T00:22:04.097Z,34.13
2018-11-27T00:24:33.581Z,37.90
2018-11-27T00:27:04.788Z,38.03
2018-11-27T00:29:34.891Z,41.67
2018-11-27T00:32:06.635Z,36.60
2018-11-27T00:34:40.148Z,37.30
2018-11-27T00:37:09.978Z,37.10
2018-11-27T00:39:39.688Z,36.60
2018-11-27T00:42:10.212Z,42.13
2018-11-27T00:44:41.752Z,37.47
2018-11-27T00:47:25.903Z,33.13
2018-11-27T00:49:56.050Z,34.60
2018-11-27T00:52:25.858Z,35.70
2018-11-27T00:54:58.831Z,42.17
2018-11-27T00:57:28.728Z,33.80
2018-11-27T01:00:01.759Z,31.23
2018-11-27T01:02:31.957Z,32.47
2018-11-27T01:05:05.151Z,33.70
2018-11-27T01:07:35.382Z,32.50
2018-11-27T01:10:06.266Z,34.87
2018-11-27T01:12:35.733Z,30.90
2018-11-27T01:15:05.260Z,32.70
2018-11-27T01:17:34.928Z,32.50
2018-11-27T01:20:08.233Z,29.63
2018-11-27T01:22:41.097Z,29.10
2018-11-27T01:25:13.160Z,29.87
2018-11-27T01:27:43.491Z,28.33
2018-11-27T01:30:15.966Z,30.77
2018-11-27T01:32:45.667Z,26.80
2018-11-27T01:35:19.069Z,26.37
2018-11-27T01:37:52.171Z,28.70
2018-11-27T01:40:27.270Z,27.40
2018-11-27T01:42:58.918Z,27.80
2018-11-27T01:45:29.191Z,26.83
2018-11-27T01:48:00.074Z,25.73
2018-11-27T01:50:29.594Z,22.27
2018-11-27T01:53:01.934Z,26.53
2018-11-27T01:55:36.160Z,27.30
2018-11-27T01:58:06.400Z,26.50
2018-11-27T02:00:42.888Z,25.83
2018-11-27T02:03:15.836Z,23.70
2018-11-27T02:05:45.704Z,25.73
2018-11-27T02:08:18.509Z,24.93
2018-11-27T02:10:50.938Z,22.70
2018-11-27T02:13:27.737Z,23.97
2018-11-27T02:15:59.315Z,22.20
2018-11-27T02:18:38.950Z,23.63
2018-11-27T02:21:19.627Z,22.87
2018-11-27T02:23:52.076Z,22.87
2018-11-27T02:26:27.673Z,23.03
2018-11-27T02:28:57.604Z,22.37
2018-11-27T02:31:27.737Z,23.03
2018-11-27T02:33:58.463Z,24.27
2018-11-27T02:36:30.075Z,25.90
2018-11-27T02:39:07.488Z,18.97
2018-11-27T02:41:37.632Z,21.43
2018-11-27T02:44:08.005Z,23.20
2018-11-27T02:46:37.682Z,22.70
2018-11-27T02:49:09.510Z,22.63
2018-11-27T02:51:40.913Z,21.40
2018-11-27T02:54:10.881Z,20.97
2018-11-27T02:56:40.656Z,23.50
2018-11-27T02:59:10.368Z,22.67
2018-11-27T03:01:40.420Z,22.47
2018-11-27T03:04:10.431Z,21.80
2018-11-27T03:06:40.074Z,21.13
2018-11-27T03:09:11.688Z,22.37
2018-11-27T03:11:41.041Z,19.70
2018-11-27T03:14:10.885Z,21.17
2018-11-27T03:16:42.156Z,20.53
2018-11-27T03:19:11.674Z,21.30
2018-11-27T03:21:41.829Z,20.00
2018-11-27T03:24:11.368Z,20.90
2018-11-27T03:26:41.880Z,20.93
2018-11-27T03:29:11.816Z,20.77
2018-11-27T03:31:41.342Z,21.30
2018-11-27T03:34:10.923Z,23.23
2018-11-27T03:40:20.742Z,18.70
2018-11-27T03:42:50.837Z,19.27
2018-11-27T03:45:20.960Z,20.00
2018-11-27T03:47:50.655Z,19.93
2018-11-27T03:50:25.004Z,18.00
2018-11-27T03:52:54.414Z,19.80
2018-11-27T03:55:23.847Z,21.37
2018-11-27T03:57:54.001Z,17.67
2018-11-27T04:00:25.266Z,20.43
2018-11-27T04:03:09.397Z,17.30
2018-11-27T04:05:39.020Z,18.90
2018-11-27T04:08:09.540Z,18.40
2018-11-27T04:10:40.256Z,19.07
2018-11-27T04:13:11.309Z,19.57
2018-11-27T04:15:40.735Z,20.40
2018-11-27T04:18:10.282Z,21.03
2018-11-27T04:20:40.119Z,17.83
2018-11-27T04:23:09.711Z,20.33
2018-11-27T04:25:39.227Z,18.50
2018-11-27T04:28:08.838Z,19.83
2018-11-27T04:30:38.210Z,22.50
2018-11-27T04:33:07.957Z,19.57
2018-11-27T04:35:37.514Z,18.73
2018-11-27T04:38:08.692Z,19.53
2018-11-27T04:40:38.923Z,19.80
2018-11-27T04:43:08.218Z,18.17
2018-11-27T04:45:37.985Z,20.13
2018-11-27T04:48:08.103Z,17.73
2018-11-27T04:50:37.953Z,17.77
2018-11-27T04:53:07.902Z,16.60
2018-11-27T04:55:37.577Z,18.27
2018-11-27T04:58:07.196Z,18.70
2018-11-27T05:00:36.491Z,18.00
2018-11-27T05:03:06.944Z,19.13
2018-11-27T05:05:36.557Z,19.00
2018-11-27T05:08:06.302Z,18.37
2018-11-27T05:10:35.995Z,17.83
2018-11-27T05:13:05.815Z,17.50
2018-11-27T05:15:35.076Z,18.33
2018-11-27T05:18:04.590Z,18.60
2018-11-27T05:20:33.864Z,18.57
2018-11-27T05:23:03.957Z,16.83
2018-11-27T05:25:33.342Z,18.50
2018-11-27T05:28:03.722Z,18.27
2018-11-27T05:30:33.219Z,18.70
2018-11-27T05:33:03.607Z,19.40
2018-11-27T05:35:33.272Z,16.90
2018-11-27T05:38:03.864Z,18.50
2018-11-27T05:40:33.124Z,18.27
2018-11-27T05:43:07.236Z,17.80
2018-11-27T05:45:36.637Z,16.77
2018-11-27T05:48:06.886Z,18.33
2018-11-27T05:50:36.153Z,18.17
2018-11-27T05:53:06.600Z,19.03
2018-11-27T05:55:36.863Z,20.83
2018-11-27T05:58:08.762Z,18.57
2018-11-27T06:00:38.296Z,20.80
2018-11-27T06:03:09.946Z,20.13
2018-11-27T06:05:41.397Z,18.57
2018-11-27T06:08:11.459Z,16.80
2018-11-27T06:10:40.774Z,18.70
2018-11-27T06:13:15.570Z,17.50
2018-11-27T06:15:44.892Z,25.67
2018-11-27T06:18:14.367Z,18.23
2018-11-27T06:20:43.656Z,17.67
2018-11-27T06:23:13.307Z,18.70
2018-11-27T06:25:43.635Z,18.37
2018-11-27T06:28:13.292Z,19.17
2018-11-27T06:30:44.801Z,20.43
2018-11-27T06:33:14.761Z,20.00
2018-11-27T06:35:45.496Z,19.53
2018-11-27T06:38:15.288Z,18.00
2018-11-27T06:40:44.727Z,19.40
2018-11-27T06:43:14.870Z,18.93
2018-11-27T06:45:44.773Z,19.80
2018-11-27T06:48:14.689Z,21.20
2018-11-27T06:50:44.147Z,19.00
2018-11-27T06:53:13.503Z,18.70
2018-11-27T06:55:42.905Z,20.20
2018-11-27T06:58:12.849Z,19.17
2018-11-27T07:00:42.491Z,18.10
2018-11-27T07:03:14.897Z,18.67
2018-11-27T07:05:44.272Z,16.87
2018-11-27T07:08:13.684Z,17.00
2018-11-27T07:10:45.753Z,19.57
2018-11-27T07:13:24.085Z,15.60
2018-11-27T07:15:54.481Z,17.57
2018-11-27T07:18:23.922Z,16.43
2018-11-27T07:20:53.472Z,18.67
2018-11-27T07:23:23.703Z,16.37
2018-11-27T07:25:53.026Z,18.80
2018-11-27T07:28:22.524Z,19.37
2018-11-27T07:30:51.841Z,19.10
2018-11-27T07:33:21.327Z,19.07
2018-11-27T07:35:51.705Z,18.47
2018-11-27T07:38:21.857Z,19.70
2018-11-27T07:40:51.776Z,17.20
2018-11-27T07:43:22.514Z,17.07
2018-11-27T07:46:56.141Z,18.23
2018-11-27T07:49:26.947Z,27.53
2018-11-27T07:51:56.304Z,19.80
2018-11-27T07:54:25.843Z,26.90
2018-11-27T07:56:55.181Z,17.90
2018-11-27T07:59:24.615Z,18.80
2018-11-27T08:01:54.109Z,15.93
2018-11-27T08:04:24.184Z,17.47
2018-11-27T08:06:53.777Z,16.03
2018-11-27T08:09:27.099Z,16.23
2018-11-27T08:11:56.247Z,19.50
2018-11-27T08:14:26.473Z,17.47
2018-11-27T08:16:56.033Z,17.80
2018-11-27T08:19:25.492Z,18.27
2018-11-27T08:21:56.191Z,18.10
2018-11-27T08:24:34.810Z,16.00
2018-11-27T08:27:04.294Z,16.40
2018-11-27T08:29:34.568Z,19.20
2018-11-27T08:32:04.944Z,16.53
2018-11-27T08:34:35.150Z,17.53
2018-11-27T08:37:05.535Z,14.90
2018-11-27T08:39:35.433Z,17.97
2018-11-27T08:42:05.002Z,18.90
2018-11-27T08:44:34.441Z,18.13
2018-11-27T08:47:04.181Z,18.90
2018-11-27T08:49:33.820Z,17.47
2018-11-27T08:52:04.332Z,18.63
2018-11-27T08:54:33.919Z,20.33
2018-11-27T08:57:04.433Z,23.20
2018-11-27T08:59:36.770Z,15.13
2018-11-27T09:02:07.703Z,18.60
2018-11-27T09:04:39.016Z,16.17
2018-11-27T09:07:08.707Z,16.00
2018-11-27T09:09:39.534Z,14.97
2018-11-27T09:12:09.922Z,15.90
2018-11-27T09:14:40.567Z,15.00
2018-11-27T09:17:15.765Z,17.43
2018-11-27T09:19:49.818Z,15.13
2018-11-27T09:22:20.644Z,14.97
2018-11-27T09:24:51.559Z,16.77
2018-11-27T09:27:21.300Z,14.10
2018-11-27T09:29:51.749Z,15.30
2018-11-27T09:32:26.359Z,14.97
2018-11-27T09:34:57.171Z,15.70
2018-11-27T09:37:26.594Z,18.63
2018-11-27T09:39:56.440Z,20.47
2018-11-27T09:42:26.324Z,17.33
2018-11-27T09:44:55.732Z,18.23
2018-11-27T09:47:28.992Z,16.73
2018-11-27T09:49:58.556Z,18.20
2018-11-27T09:52:29.681Z,18.10
2018-11-27T09:54:59.298Z,16.87
2018-11-27T09:57:29.370Z,17.70
2018-11-27T09:59:58.864Z,16.17
2018-11-27T10:02:28.749Z,16.37
2018-11-27T10:04:58.092Z,16.90
2018-11-27T10:07:27.889Z,16.17
2018-11-27T10:09:57.719Z,15.30
2018-11-27T10:12:28.270Z,15.40
2018-11-27T10:14:58.327Z,18.47
2018-11-27T10:17:31.544Z,17.37
2018-11-27T10:20:04.812Z,14.73
2018-11-27T10:22:38.905Z,15.37
2018-11-27T10:25:21.174Z,15.53
2018-11-27T10:27:53.513Z,16.37
2018-11-27T10:30:30.319Z,13.93
2018-11-27T10:33:03.597Z,14.37
2018-11-27T10:35:37.843Z,16.37
2018-11-27T10:38:13.018Z,16.60
2018-11-27T10:40:42.865Z,16.00
2018-11-27T10:45:46.247Z,18.03
2018-11-27T10:46:08.981Z,14.70
2018-11-27T10:48:16.605Z,16.00
2018-11-27T10:50:47.109Z,14.73
2018-11-27T10:53:17.153Z,15.57
2018-11-27T10:55:47.212Z,17.40
2018-11-27T10:58:19.945Z,20.37
2018-11-27T11:00:54.873Z,16.57
2018-11-27T11:03:26.195Z,17.07
2018-11-27T11:06:00.348Z,15.83
2018-11-27T11:08:30.341Z,16.07
2018-11-27T11:11:02.811Z,16.20
2018-11-27T11:13:33.860Z,15.43
2018-11-27T11:16:07.283Z,15.83
2018-11-27T11:18:37.203Z,14.63
2018-11-27T11:21:08.291Z,15.00
2018-11-27T11:23:40.993Z,15.23
2018-11-27T11:26:10.497Z,19.03
2018-11-27T11:28:50.504Z,16.33
2018-11-27T11:31:20.844Z,39.20
2018-11-27T11:33:58.491Z,16.33
2018-11-27T11:36:39.341Z,16.43
2018-11-27T11:39:14.668Z,15.13
2018-11-27T11:41:47.604Z,14.60
2018-11-27T11:44:22.450Z,13.50
2018-11-27T11:46:52.039Z,14.90
2018-11-27T11:49:21.922Z,13.83
2018-11-27T11:51:54.196Z,13.33
2018-11-27T11:54:24.731Z,14.80
2018-11-27T11:56:55.400Z,19.43
2018-11-27T11:59:28.916Z,14.40
2018-11-27T12:01:56.987Z,13.93
2018-11-27T12:04:26.772Z,13.63
2018-11-27T12:06:56.445Z,16.67
2018-11-27T12:09:26.092Z,13.47
2018-11-27T12:12:01.045Z,13.90
2018-11-27T12:14:31.800Z,16.53
2018-11-27T12:17:02.557Z,16.37
2018-11-27T12:19:33.383Z,16.30
2018-11-27T12:22:02.996Z,27.77
2018-11-27T12:24:33.738Z,13.23
2018-11-27T12:27:09.421Z,20.17
2018-11-27T12:29:40.608Z,25.37
2018-11-27T12:32:12.211Z,14.40
2018-11-27T12:34:50.759Z,15.70
2018-11-27T12:37:22.281Z,12.60
2018-11-27T12:39:53.170Z,11.17
2018-11-27T12:42:23.163Z,13.63
2018-11-27T12:44:53.535Z,12.50
2018-11-27T12:47:24.468Z,13.00
2018-11-27T12:49:55.253Z,13.23
2018-11-27T12:52:25.252Z,14.63
2018-11-27T12:54:57.779Z,15.77
2018-11-27T12:57:27.220Z,14.70
2018-11-27T12:59:57.187Z,17.00
2018-11-27T13:02:28.269Z,35.63
2018-11-27T13:04:58.523Z,13.53
2018-11-27T13:07:27.896Z,12.27
2018-11-27T13:09:57.753Z,13.67
2018-11-27T13:13:31.198Z,24.53
2018-11-27T13:16:01.585Z,13.67
2018-11-27T13:18:39.433Z,15.00
2018-11-27T13:21:12.023Z,16.17
2018-11-27T13:23:41.655Z,16.37
2018-11-27T13:26:12.239Z,14.07
2018-11-27T13:29:13.897Z,13.97
2018-11-27T13:31:45.052Z,11.13
2018-11-27T13:34:16.286Z,11.50
2018-11-27T13:36:47.120Z,12.17
2018-11-27T13:39:27.303Z,12.57
2018-11-27T13:42:01.268Z,14.23
2018-11-27T13:44:31.268Z,14.43
2018-11-27T13:47:02.687Z,14.50
2018-11-27T13:49:32.771Z,16.03
2018-11-27T13:52:02.375Z,14.20
2018-11-27T13:54:31.734Z,14.43
2018-11-27T13:57:01.852Z,15.43
2018-11-27T13:59:32.004Z,22.00
2018-11-27T14:02:01.445Z,16.50
2018-11-27T14:04:34.657Z,15.03
2018-11-27T14:07:07.588Z,18.63
2018-11-27T14:09:38.179Z,19.40
2018-11-27T14:12:08.733Z,16.30
2018-11-27T14:14:39.438Z,14.17
2018-11-27T14:17:09.096Z,18.37
2018-11-27T14:19:38.717Z,14.00
2018-11-27T14:22:08.878Z,13.17
2018-11-27T14:24:40.429Z,13.40
2018-11-27T14:27:11.834Z,13.70
2018-11-27T14:29:43.241Z,13.33
2018-11-27T14:32:12.660Z,15.40
2018-11-27T14:34:42.464Z,14.40
2018-11-27T14:37:12.714Z,17.03
2018-11-27T14:39:42.798Z,22.13
2018-11-27T14:42:13.001Z,11.67
2018-11-27T14:44:42.666Z,15.93
2018-11-27T14:47:13.183Z,14.60
2018-11-27T14:49:42.932Z,16.80
2018-11-27T14:52:14.894Z,12.93
2018-11-27T14:54:44.778Z,13.03
2018-11-27T14:57:14.334Z,14.37
2018-11-27T14:59:44.025Z,21.33
2018-11-27T15:02:13.978Z,14.40
2018-11-27T15:04:43.516Z,15.30
2018-11-27T15:07:18.827Z,15.43
2018-11-27T15:09:52.432Z,16.27
2018-11-27T15:12:31.353Z,13.17
2018-11-27T15:15:10.775Z,13.33
2018-11-27T15:17:47.429Z,14.50
2018-11-27T15:20:20.313Z,14.00
2018-11-27T15:23:57.819Z,15.77
2018-11-27T15:26:29.031Z,21.73
2018-11-27T15:29:03.810Z,14.67
2018-11-27T15:31:37.672Z,22.70
2018-11-27T15:34:15.485Z,16.47
2018-11-27T15:36:49.400Z,15.67
2018-11-27T15:39:18.738Z,14.20
2018-11-27T15:41:48.811Z,34.70
2018-11-27T15:44:22.391Z,17.43
2018-11-27T15:46:53.372Z,15.43
2018-11-27T15:49:23.865Z,14.60
2018-11-27T15:51:53.208Z,15.40
2018-11-27T15:54:24.426Z,18.47
2018-11-27T15:57:06.698Z,15.93
2018-11-27T15:59:42.144Z,15.07
2018-11-27T16:02:12.333Z,14.20
2018-11-27T16:04:43.066Z,15.80
2018-11-27T16:07:13.409Z,16.97
2018-11-27T16:09:44.102Z,15.47
2018-11-27T16:12:15.455Z,13.20
2018-11-27T16:14:46.452Z,14.73
2018-11-27T16:17:15.919Z,12.53
2018-11-27T16:19:46.665Z,15.17
2018-11-27T16:22:20.816Z,13.83
2018-11-27T16:24:51.894Z,13.03
2018-11-27T16:27:23.464Z,13.30
2018-11-27T16:29:55.330Z,14.03
2018-11-27T16:32:26.860Z,14.70
2018-11-27T16:34:57.399Z,12.30
2018-11-27T16:37:27.228Z,14.90
2018-11-27T16:39:57.883Z,12.13
2018-11-27T16:42:30.571Z,13.50
2018-11-27T16:45:02.362Z,13.57
2018-11-27T16:47:33.005Z,13.83
2018-11-27T16:50:04.861Z,14.00
2018-11-27T16:52:36.220Z,19.73
2018-11-27T16:55:11.645Z,13.97
2018-11-27T16:57:42.027Z,14.57
2018-11-27T17:00:24.870Z,13.53
2018-11-27T17:03:10.526Z,15.57
2018-11-27T17:05:42.748Z,16.15
2018-11-27T17:08:12.748Z,16.80
2018-11-27T17:10:44.402Z,16.70
2018-11-27T17:13:15.060Z,12.13
2018-11-27T17:15:46.828Z,13.00
2018-11-27T17:18:29.665Z,14.20
2018-11-27T17:21:00.864Z,20.53
2018-11-27T17:23:34.044Z,16.80
2018-11-27T17:26:09.929Z,15.90
2018-11-27T17:28:43.844Z,27.67
2018-11-27T17:31:15.839Z,15.20
2018-11-27T17:33:51.748Z,15.93
2018-11-27T17:36:22.972Z,22.40
2018-11-27T17:38:54.540Z,22.30
2018-11-27T17:41:25.365Z,15.80
2018-11-27T17:43:57.411Z,15.10
2018-11-27T17:46:28.854Z,15.13
2018-11-27T17:49:07.024Z,13.77
2018-11-27T17:51:37.422Z,18.03
2018-11-27T17:54:15.844Z,14.77
2018-11-27T17:56:52.264Z,17.03
2018-11-27T17:59:22.868Z,20.10
2018-11-27T18:02:59.426Z,18.47
2018-11-27T18:05:28.930Z,14.70
2018-11-27T18:08:00.703Z,17.00
2018-11-27T18:10:48.017Z,15.70
2018-11-27T18:13:31.673Z,17.13
2018-11-27T18:16:03.814Z,18.40
2018-11-27T18:18:34.477Z,20.00
2018-11-27T18:21:06.420Z,19.07
2018-11-27T18:23:40.498Z,17.73
2018-11-27T18:26:17.076Z,18.23
2018-11-27T18:28:47.899Z,20.17
2018-11-27T18:31:17.556Z,39.13
2018-11-27T18:33:47.965Z,20.43
2018-11-27T18:36:18.142Z,21.13
2018-11-27T18:38:48.645Z,19.17
2018-11-27T18:41:19.020Z,23.20
2018-11-27T18:43:49.902Z,20.27
2018-11-27T18:46:22.967Z,20.00
2018-11-27T18:48:54.581Z,21.23
2018-11-27T18:51:24.370Z,22.37
2018-11-27T18:53:55.029Z,21.40
2018-11-27T18:56:25.326Z,18.23
2018-11-27T18:58:56.051Z,18.17
2018-11-27T19:01:27.674Z,19.73
2018-11-27T19:03:58.249Z,20.13
2018-11-27T19:06:30.042Z,19.10
2018-11-27T19:09:00.179Z,20.03
2018-11-27T19:11:30.297Z,19.77
2018-11-27T19:14:11.831Z,21.30
2018-11-27T19:16:43.063Z,21.23
2018-11-27T19:19:13.264Z,19.40
2018-11-27T19:21:53.548Z,48.97
2018-11-27T19:24:24.210Z,46.83
2018-11-27T19:26:54.876Z,22.63
2018-11-27T19:29:26.439Z,21.50
2018-11-27T19:31:56.028Z,19.17
2018-11-27T19:34:26.243Z,21.27
2018-11-27T19:36:56.357Z,27.90
2018-11-27T19:39:40.614Z,23.57
2018-11-27T19:42:15.454Z,23.40
2018-11-27T19:44:45.012Z,25.07
2018-11-27T19:47:15.705Z,26.10
2018-11-27T19:49:46.377Z,46.43
2018-11-27T19:52:16.109Z,25.10
2018-11-27T19:54:48.285Z,22.40
2018-11-27T19:57:20.327Z,21.83
2018-11-27T19:59:50.281Z,18.90
2018-11-27T20:02:20.296Z,20.33
2018-11-27T20:04:51.876Z,17.83
2018-11-27T20:07:24.067Z,23.80
2018-11-27T20:10:01.413Z,21.53
2018-11-27T20:12:31.226Z,20.13
2018-11-27T20:15:01.292Z,21.90
2018-11-27T20:17:39.849Z,20.93
2018-11-27T20:20:13.848Z,22.97
2018-11-27T20:22:44.237Z,20.60
2018-11-27T20:25:17.791Z,23.87
2018-11-27T20:27:49.882Z,19.50
2018-11-27T20:30:25.332Z,23.63
2018-11-27T20:32:57.855Z,21.33
2018-11-27T20:35:27.947Z,21.57
2018-11-27T20:38:01.262Z,25.30
2018-11-27T20:40:31.169Z,23.43
2018-11-27T20:43:02.478Z,22.17
2018-11-27T20:45:36.430Z,25.93
2018-11-27T20:48:20.410Z,23.93
2018-11-27T20:50:52.559Z,22.10
2018-11-27T20:53:24.441Z,21.23
2018-11-27T20:55:57.236Z,21.77
2018-11-27T20:58:31.644Z,21.27
2018-11-27T21:01:08.058Z,20.50
2018-11-27T21:03:38.942Z,29.03
2018-11-27T21:06:11.202Z,24.07
2018-11-27T21:08:41.039Z,23.47
2018-11-27T21:11:13.991Z,22.83
2018-11-27T21:13:44.405Z,24.60
2018-11-27T21:16:14.672Z,24.30
2018-11-27T21:18:44.599Z,29.77
2018-11-27T21:21:15.475Z,23.73
2018-11-27T21:23:45.618Z,22.77
2018-11-27T21:26:17.262Z,24.33
2018-11-27T21:28:49.464Z,25.70
2018-11-27T21:31:24.210Z,24.10
2018-11-27T21:33:53.253Z,22.70
2018-11-27T21:36:23.810Z,23.57
2018-11-27T21:38:53.467Z,21.93
2018-11-27T21:41:25.235Z,23.37
2018-11-27T21:43:57.587Z,21.17
2018-11-27T21:46:28.679Z,41.43
2018-11-27T21:48:58.983Z,27.17
2018-11-27T21:51:30.914Z,21.57
2018-11-27T21:54:05.861Z,21.73
2018-11-27T21:56:36.837Z,28.53
2018-11-27T21:59:07.324Z,23.70
2018-11-27T22:01:38.314Z,21.97
2018-11-27T22:04:09.527Z,24.90
2018-11-27T22:06:48.285Z,23.47
2018-11-27T22:09:18.799Z,24.30
2018-11-27T22:11:50.427Z,25.03
2018-11-27T22:14:20.826Z,24.50
2018-11-27T22:16:50.346Z,21.53
2018-11-27T22:19:21.359Z,22.53
2018-11-27T22:21:52.037Z,23.67
2018-11-27T22:24:27.802Z,23.57
2018-11-27T22:27:07.920Z,23.87
2018-11-27T22:29:38.987Z,22.90
2018-11-27T22:32:09.149Z,21.83
2018-11-27T22:34:38.667Z,23.97
2018-11-27T22:37:08.482Z,26.10
2018-11-27T22:39:37.898Z,21.43
2018-11-27T22:42:09.154Z,24.10
2018-11-27T22:44:40.390Z,22.60
2018-11-27T22:47:16.896Z,22.13
2018-11-27T22:49:47.228Z,25.07
2018-11-27T22:52:16.606Z,22.57
2018-11-27T22:54:47.380Z,23.70
2018-11-27T22:57:24.198Z,20.93
2018-11-27T23:00:00.799Z,22.80
2018-11-27T23:02:30.289Z,20.70
2018-11-27T23:04:59.625Z,22.73
2018-11-27T23:07:34.643Z,22.00
2018-11-27T23:10:05.351Z,21.83
2018-11-27T23:12:35.967Z,21.47
2018-11-27T23:15:06.194Z,25.30
2018-11-27T23:17:35.671Z,24.13
2018-11-27T23:20:11.895Z,22.63
2018-11-27T23:22:41.527Z,31.40
2018-11-27T23:25:15.716Z,30.70
2018-11-27T23:27:44.979Z,22.70
2018-11-27T23:30:20.645Z,22.83
2018-11-27T23:33:02.845Z,24.90
2018-11-27T23:35:32.526Z,23.60
2018-11-27T23:38:01.775Z,21.93
2018-11-27T23:40:39.101Z,22.90
2018-11-27T23:43:08.370Z,24.30
2018-11-27T23:45:38.085Z,26.73
2018-11-27T23:48:07.963Z,27.43
2018-11-27T23:50:37.318Z,27.37
2018-11-27T23:53:12.116Z,25.23
2018-11-27T23:55:42.047Z,24.60
2018-11-27T23:58:11.965Z,22.83
